West Ocean City, Maryland
Current Conditions -  °F | °C
As of 9:53 AM on Saturday 25 Oct 2014 (Local Time) from KOXB Reporting Station
Clear Clear  
Wind Chill: 58°   Ceiling: Unl
Heat Index: 58°   Visibility: 10mi
Dew Point: 43°   Wind: 7mph
Humidity: 58%   Direction: 320°NW
Pressure: 29.94"   Gusts: NA
Location:  38.3984°N, 75.0667°W
Report Text: KOXB 251353Z AUTO 32006KT 10SM CLR 14/06 A2994 RMK AO2 SLP139 T01440061 TSNO
Loading
Personal Weather Stations






























Interactive Weather Map
Tropical Storm Tracking
New forecast layout! Learn more

10-Day Weather Forecast

Advertisements
Track Severe Weather on mobile